createdAt,value
2019-03-27T00:00:10.421Z,1008.50
2019-03-27T00:01:10.455Z,1008.47
2019-03-27T00:02:10.493Z,1008.46
2019-03-27T00:03:10.531Z,1008.47
2019-03-27T00:04:10.570Z,1008.48
2019-03-27T00:05:10.607Z,1008.47
2019-03-27T00:06:10.650Z,1008.45
2019-03-27T00:07:10.690Z,1008.42
2019-03-27T00:08:10.724Z,1008.40
2019-03-27T00:09:10.760Z,1008.40
2019-03-27T00:10:10.807Z,1008.46
2019-03-27T00:11:10.836Z,1008.42
2019-03-27T00:12:10.875Z,1008.40
2019-03-27T00:13:10.912Z,1008.40
2019-03-27T00:14:10.951Z,1008.41
2019-03-27T00:15:13.379Z,1008.35
2019-03-27T00:16:11.031Z,1008.38
2019-03-27T00:17:11.064Z,1008.35
2019-03-27T00:18:11.103Z,1008.34
2019-03-27T00:19:11.141Z,1008.34
2019-03-27T00:20:11.180Z,1008.39
2019-03-27T00:21:11.226Z,1008.37
2019-03-27T00:22:11.254Z,1008.43
2019-03-27T00:23:11.294Z,1008.38
2019-03-27T00:24:11.331Z,1008.39
2019-03-27T00:25:11.367Z,1008.40
2019-03-27T00:26:11.406Z,1008.44
2019-03-27T00:27:11.443Z,1008.39
2019-03-27T00:28:11.482Z,1008.43
2019-03-27T00:29:11.522Z,1008.40
2019-03-27T00:30:11.564Z,1008.36
2019-03-27T00:31:12.064Z,1008.40
2019-03-27T00:32:11.635Z,1008.38
2019-03-27T00:33:11.671Z,1008.41
2019-03-27T00:34:11.712Z,1008.44
2019-03-27T00:35:11.760Z,1008.47
2019-03-27T00:36:11.786Z,1008.43
2019-03-27T00:37:11.827Z,1008.41
2019-03-27T00:38:11.860Z,1008.41
2019-03-27T00:39:11.901Z,1008.40
2019-03-27T00:40:11.989Z,1008.40
2019-03-27T00:41:11.975Z,1008.45
2019-03-27T00:42:12.014Z,1008.43
2019-03-27T00:43:12.052Z,1008.42
2019-03-27T00:44:12.090Z,1008.44
2019-03-27T00:45:25.405Z,1008.43
2019-03-27T00:46:12.167Z,1008.46
2019-03-27T00:47:12.208Z,1008.46
2019-03-27T00:48:12.249Z,1008.49
2019-03-27T00:49:12.280Z,1008.50
2019-03-27T00:50:12.319Z,1008.52
2019-03-27T00:51:12.356Z,1008.47
2019-03-27T00:52:12.397Z,1008.44
2019-03-27T00:53:12.433Z,1008.49
2019-03-27T00:54:12.469Z,1008.51
2019-03-27T00:55:12.506Z,1008.50
2019-03-27T00:56:12.544Z,1008.50
2019-03-27T00:57:12.583Z,1008.49
2019-03-27T00:58:12.624Z,1008.51
2019-03-27T00:59:12.659Z,1008.51
2019-03-27T01:00:12.753Z,1008.54
2019-03-27T01:01:12.736Z,1008.57
2019-03-27T01:02:12.773Z,1008.57
2019-03-27T01:03:12.813Z,1008.54
2019-03-27T01:04:12.849Z,1008.62
2019-03-27T01:05:12.889Z,1008.55
2019-03-27T01:06:12.924Z,1008.59
2019-03-27T01:07:12.978Z,1008.60
2019-03-27T01:08:13.004Z,1008.62
2019-03-27T01:09:13.038Z,1008.59
2019-03-27T01:10:13.078Z,1008.60
2019-03-27T01:11:13.117Z,1008.63
2019-03-27T01:12:13.163Z,1008.61
2019-03-27T01:13:13.191Z,1008.59
2019-03-27T01:14:13.236Z,1008.61
2019-03-27T01:15:13.267Z,1008.55
2019-03-27T01:16:13.308Z,1008.55
2019-03-27T01:17:13.343Z,1008.57
2019-03-27T01:18:13.381Z,1008.51
2019-03-27T01:19:13.422Z,1008.52
2019-03-27T01:20:13.459Z,1008.54
2019-03-27T01:21:13.494Z,1008.58
2019-03-27T01:22:13.532Z,1008.57
2019-03-27T01:23:13.571Z,1008.58
2019-03-27T01:24:13.611Z,1008.61
2019-03-27T01:25:13.647Z,1008.56
2019-03-27T01:26:13.685Z,1008.56
2019-03-27T01:27:13.723Z,1008.54
2019-03-27T01:28:13.764Z,1008.50
2019-03-27T01:29:13.799Z,1008.53
2019-03-27T01:30:13.838Z,1008.52
2019-03-27T01:31:13.875Z,1008.52
2019-03-27T01:32:13.919Z,1008.50
2019-03-27T01:33:13.950Z,1008.49
2019-03-27T01:34:13.988Z,1008.56
2019-03-27T01:35:14.027Z,1008.56
2019-03-27T01:36:14.068Z,1008.59
2019-03-27T01:37:14.104Z,1008.55
2019-03-27T01:38:14.148Z,1008.52
2019-03-27T01:39:14.182Z,1008.52
2019-03-27T01:40:14.225Z,1008.55
2019-03-27T01:41:14.259Z,1008.51
2019-03-27T01:42:14.295Z,1008.48
2019-03-27T01:43:14.335Z,1008.46
2019-03-27T01:44:14.370Z,1008.45
2019-03-27T01:45:14.408Z,1008.46
2019-03-27T01:46:14.448Z,1008.43
2019-03-27T01:47:14.590Z,1008.45
2019-03-27T01:48:14.525Z,1008.45
2019-03-27T01:49:14.562Z,1008.48
2019-03-27T01:50:14.602Z,1008.47
2019-03-27T01:51:14.646Z,1008.44
2019-03-27T01:52:14.676Z,1008.45
2019-03-27T01:53:14.715Z,1008.46
2019-03-27T01:54:14.760Z,1008.43
2019-03-27T01:55:14.793Z,1008.45
2019-03-27T01:56:14.829Z,1008.45
2019-03-27T01:57:14.867Z,1008.42
2019-03-27T01:58:14.903Z,1008.41
2019-03-27T01:59:14.951Z,1008.43
2019-03-27T02:00:14.995Z,1008.40
2019-03-27T02:01:15.021Z,1008.41
2019-03-27T02:02:15.059Z,1008.40
2019-03-27T02:03:15.094Z,1008.42
2019-03-27T02:04:15.132Z,1008.38
2019-03-27T02:05:15.171Z,1008.42
2019-03-27T02:06:15.209Z,1008.41
2019-03-27T02:07:15.249Z,1008.38
2019-03-27T02:08:15.285Z,1008.38
2019-03-27T02:09:15.327Z,1008.38
2019-03-27T02:10:15.360Z,1008.39
2019-03-27T02:11:15.400Z,1008.41
2019-03-27T02:12:15.454Z,1008.36
2019-03-27T02:13:15.477Z,1008.38
2019-03-27T02:14:15.515Z,1008.35
2019-03-27T02:15:15.552Z,1008.34
2019-03-27T02:16:15.594Z,1008.37
2019-03-27T02:17:15.626Z,1008.34
2019-03-27T02:18:15.674Z,1008.36
2019-03-27T02:19:15.702Z,1008.33
2019-03-27T02:20:15.742Z,1008.38
2019-03-27T02:21:15.779Z,1008.38
2019-03-27T02:22:15.818Z,1008.37
2019-03-27T02:23:15.859Z,1008.38
2019-03-27T02:24:15.896Z,1008.41
2019-03-27T02:25:15.931Z,1008.38
2019-03-27T02:26:15.969Z,1008.38
2019-03-27T02:27:16.008Z,1008.40
2019-03-27T02:28:16.054Z,1008.41
2019-03-27T02:29:16.084Z,1008.45
2019-03-27T02:30:16.126Z,1008.44
2019-03-27T02:31:16.181Z,1008.43
2019-03-27T02:32:20.410Z,1008.46
2019-03-27T02:33:16.237Z,1008.43
2019-03-27T02:34:16.275Z,1008.45
2019-03-27T02:35:16.316Z,1008.44
2019-03-27T02:36:16.351Z,1008.40
2019-03-27T02:37:16.389Z,1008.41
2019-03-27T02:38:16.429Z,1008.42
2019-03-27T02:39:16.464Z,1008.44
2019-03-27T02:40:16.518Z,1008.44
2019-03-27T02:41:16.539Z,1008.45
2019-03-27T02:42:16.581Z,1008.42
2019-03-27T02:43:16.624Z,1008.46
2019-03-27T02:44:16.652Z,1008.46
2019-03-27T02:45:16.690Z,1008.44
2019-03-27T02:46:24.359Z,1008.41
2019-03-27T02:47:16.766Z,1008.45
2019-03-27T02:48:16.804Z,1008.42
2019-03-27T02:49:16.842Z,1008.43
2019-03-27T02:50:16.879Z,1008.45
2019-03-27T02:51:16.917Z,1008.49
2019-03-27T02:52:16.955Z,1008.48
2019-03-27T02:53:16.991Z,1008.49
2019-03-27T02:54:17.028Z,1008.54
2019-03-27T02:55:17.067Z,1008.57
2019-03-27T02:56:17.109Z,1008.57
2019-03-27T02:57:17.141Z,1008.60
2019-03-27T02:58:17.183Z,1008.60
2019-03-27T02:59:17.219Z,1008.59
2019-03-27T03:00:17.254Z,1008.56
2019-03-27T03:01:17.292Z,1008.56
2019-03-27T03:02:17.329Z,1008.51
2019-03-27T03:03:17.376Z,1008.50
2019-03-27T03:04:17.421Z,1008.49
2019-03-27T03:05:17.457Z,1008.46
2019-03-27T03:06:17.479Z,1008.44
2019-03-27T03:07:17.522Z,1008.48
2019-03-27T03:08:17.559Z,1008.45
2019-03-27T03:09:17.596Z,1008.47
2019-03-27T03:10:17.755Z,1008.48
2019-03-27T03:11:17.665Z,1008.53
2019-03-27T03:12:17.704Z,1008.53
2019-03-27T03:13:17.740Z,1008.54
2019-03-27T03:14:17.780Z,1008.52
2019-03-27T03:15:17.815Z,1008.57
2019-03-27T03:16:17.855Z,1008.58
2019-03-27T03:17:17.891Z,1008.55
2019-03-27T03:18:17.929Z,1008.55
2019-03-27T03:19:17.965Z,1008.53
2019-03-27T03:20:18.002Z,1008.52
2019-03-27T03:21:18.156Z,1008.56
2019-03-27T03:22:18.078Z,1008.56
2019-03-27T03:23:18.116Z,1008.58
2019-03-27T03:24:18.152Z,1008.63
2019-03-27T03:25:18.206Z,1008.65
2019-03-27T03:26:18.230Z,1008.60
2019-03-27T03:27:18.263Z,1008.61
2019-03-27T03:28:18.317Z,1008.62
2019-03-27T03:29:18.340Z,1008.60
2019-03-27T03:30:18.389Z,1008.64
2019-03-27T03:31:18.417Z,1008.66
2019-03-27T03:32:18.616Z,1008.65
2019-03-27T03:33:18.534Z,1008.63
2019-03-27T03:34:18.535Z,1008.59
2019-03-27T03:35:18.561Z,1008.62
2019-03-27T03:36:18.599Z,1008.67
2019-03-27T03:37:18.634Z,1008.61
2019-03-27T03:38:18.675Z,1008.62
2019-03-27T03:39:18.728Z,1008.62
2019-03-27T03:40:18.754Z,1008.62
2019-03-27T03:41:18.782Z,1008.67
2019-03-27T03:42:18.822Z,1008.70
2019-03-27T03:43:18.871Z,1008.67
2019-03-27T03:44:18.896Z,1008.66
2019-03-27T03:45:18.933Z,1008.67
2019-03-27T03:46:18.972Z,1008.63
2019-03-27T03:47:19.010Z,1008.64
2019-03-27T03:48:19.046Z,1008.62
2019-03-27T03:49:19.081Z,1008.63
2019-03-27T03:50:19.119Z,1008.62
2019-03-27T03:51:19.157Z,1008.64
2019-03-27T03:52:19.196Z,1008.64
2019-03-27T03:53:19.232Z,1008.66
2019-03-27T03:54:19.352Z,1008.67
2019-03-27T03:55:19.316Z,1008.66
2019-03-27T03:56:19.345Z,1008.65
2019-03-27T03:57:19.385Z,1008.66
2019-03-27T03:58:19.418Z,1008.66
2019-03-27T03:59:19.460Z,1008.64
2019-03-27T04:00:19.494Z,1008.72
2019-03-27T04:01:19.529Z,1008.76
2019-03-27T04:02:19.569Z,1008.77
2019-03-27T04:03:19.625Z,1008.76
2019-03-27T04:04:19.649Z,1008.78
2019-03-27T04:05:19.682Z,1008.76
2019-03-27T04:06:19.715Z,1008.74
2019-03-27T04:07:19.753Z,1008.75
2019-03-27T04:08:19.791Z,1008.74
2019-03-27T04:09:19.827Z,1008.76
2019-03-27T04:10:19.864Z,1008.71
2019-03-27T04:11:19.903Z,1008.73
2019-03-27T04:12:19.939Z,1008.79
2019-03-27T04:13:19.976Z,1008.72
2019-03-27T04:14:20.017Z,1008.75
2019-03-27T04:15:20.053Z,1008.76
2019-03-27T04:16:20.089Z,1008.79
2019-03-27T04:17:20.129Z,1008.77
2019-03-27T04:18:20.178Z,1008.78
2019-03-27T04:19:20.215Z,1008.78
2019-03-27T04:20:20.265Z,1008.79
2019-03-27T04:21:20.274Z,1008.82
2019-03-27T04:22:20.321Z,1008.83
2019-03-27T04:23:20.351Z,1008.80
2019-03-27T04:24:20.388Z,1008.84
2019-03-27T04:25:20.437Z,1008.89
2019-03-27T04:26:20.468Z,1008.90
2019-03-27T04:27:20.500Z,1008.93
2019-03-27T04:28:20.539Z,1008.95
2019-03-27T04:29:20.580Z,1008.98
2019-03-27T04:30:20.630Z,1008.95
2019-03-27T04:31:20.647Z,1008.94
2019-03-27T04:32:20.715Z,1008.98
2019-03-27T04:33:20.722Z,1008.98
2019-03-27T04:34:20.766Z,1008.96
2019-03-27T04:35:20.799Z,1009.00
2019-03-27T04:36:20.836Z,1009.00
2019-03-27T04:37:20.872Z,1009.00
2019-03-27T04:38:20.908Z,1009.01
2019-03-27T04:39:20.947Z,1009.00
2019-03-27T04:40:20.985Z,1009.01
2019-03-27T04:41:21.020Z,1008.94
2019-03-27T04:42:21.065Z,1008.93
2019-03-27T04:43:21.099Z,1008.97
2019-03-27T04:44:21.145Z,1008.95
2019-03-27T04:45:21.170Z,1008.92
2019-03-27T04:46:21.210Z,1008.91
2019-03-27T04:47:31.944Z,1008.93
2019-03-27T04:48:21.286Z,1008.90
2019-03-27T04:49:21.327Z,1008.92
2019-03-27T04:50:21.356Z,1008.92
2019-03-27T04:51:21.395Z,1008.88
2019-03-27T04:52:21.432Z,1008.92
2019-03-27T04:53:21.467Z,1008.98
2019-03-27T04:54:21.505Z,1009.04
2019-03-27T04:55:21.544Z,1009.01
2019-03-27T04:56:21.581Z,1009.03
2019-03-27T04:57:21.623Z,1009.04
2019-03-27T04:58:21.655Z,1009.06
2019-03-27T04:59:21.703Z,1009.05
2019-03-27T05:00:21.736Z,1009.08
2019-03-27T05:01:21.768Z,1009.06
2019-03-27T05:02:21.806Z,1009.07
2019-03-27T05:03:21.845Z,1009.06
2019-03-27T05:04:21.882Z,1009.11
2019-03-27T05:05:21.928Z,1009.15
2019-03-27T05:06:21.953Z,1009.13
2019-03-27T05:07:22.010Z,1009.15
2019-03-27T05:08:22.032Z,1009.14
2019-03-27T05:09:22.067Z,1009.14
2019-03-27T05:10:22.104Z,1009.15
2019-03-27T05:11:22.141Z,1009.15
2019-03-27T05:12:22.177Z,1009.12
2019-03-27T05:13:22.265Z,1009.10
2019-03-27T05:14:22.253Z,1009.11
2019-03-27T05:15:22.301Z,1009.10
2019-03-27T05:16:22.327Z,1009.12
2019-03-27T05:17:22.363Z,1009.06
2019-03-27T05:18:22.400Z,1009.06
2019-03-27T05:19:22.438Z,1009.03
2019-03-27T05:20:22.475Z,1009.03
2019-03-27T05:21:22.514Z,1009.07
2019-03-27T05:22:22.550Z,1009.06
2019-03-27T05:23:22.587Z,1009.09
2019-03-27T05:24:22.628Z,1009.13
2019-03-27T05:25:22.660Z,1009.07
2019-03-27T05:26:22.700Z,1009.11
2019-03-27T05:27:22.743Z,1009.07
2019-03-27T05:28:22.774Z,1009.04
2019-03-27T05:29:22.832Z,1009.04
2019-03-27T05:30:22.848Z,1009.05
2019-03-27T05:31:22.890Z,1009.07
2019-03-27T05:32:22.925Z,1009.08
2019-03-27T05:33:22.960Z,1009.12
2019-03-27T05:34:22.998Z,1009.09
2019-03-27T05:35:23.033Z,1009.11
2019-03-27T05:36:23.073Z,1009.09
2019-03-27T05:37:23.111Z,1009.09
2019-03-27T05:38:23.148Z,1009.07
2019-03-27T05:39:23.182Z,1009.10
2019-03-27T05:40:23.328Z,1009.08
2019-03-27T05:41:23.268Z,1009.11
2019-03-27T05:42:23.302Z,1009.09
2019-03-27T05:43:23.333Z,1009.10
2019-03-27T05:44:23.421Z,1009.11
2019-03-27T05:45:23.403Z,1009.03
2019-03-27T05:46:26.478Z,1009.07
2019-03-27T05:47:23.477Z,1009.10
2019-03-27T05:48:23.522Z,1009.12
2019-03-27T05:49:23.580Z,1009.13
2019-03-27T05:50:23.594Z,1009.12
2019-03-27T05:51:23.627Z,1009.12
2019-03-27T05:52:23.667Z,1009.15
2019-03-27T05:53:23.698Z,1009.18
2019-03-27T05:54:23.752Z,1009.18
2019-03-27T05:55:26.492Z,1009.19
2019-03-27T05:56:23.812Z,1009.23
2019-03-27T05:57:23.848Z,1009.22
2019-03-27T05:58:23.890Z,1009.24
2019-03-27T05:59:23.922Z,1009.19
2019-03-27T06:00:23.958Z,1009.20
2019-03-27T06:01:23.993Z,1009.26
2019-03-27T06:02:24.032Z,1009.28
2019-03-27T06:03:24.073Z,1009.22
2019-03-27T06:04:24.113Z,1009.25
2019-03-27T06:05:24.144Z,1009.21
2019-03-27T06:06:24.179Z,1009.25
2019-03-27T06:07:24.217Z,1009.28
2019-03-27T06:08:24.256Z,1009.32
2019-03-27T06:09:24.296Z,1009.33
2019-03-27T06:10:24.429Z,1009.37
2019-03-27T06:11:24.364Z,1009.40
2019-03-27T06:12:24.409Z,1009.38
2019-03-27T06:13:24.440Z,1009.46
2019-03-27T06:14:24.475Z,1009.49
2019-03-27T06:15:24.518Z,1009.47
2019-03-27T06:16:24.551Z,1009.52
2019-03-27T06:17:24.587Z,1009.48
2019-03-27T06:18:24.625Z,1009.52
2019-03-27T06:19:24.661Z,1009.48
2019-03-27T06:20:24.713Z,1009.47
2019-03-27T06:21:24.739Z,1009.50
2019-03-27T06:22:24.839Z,1009.48
2019-03-27T06:23:24.810Z,1009.49
2019-03-27T06:24:24.851Z,1009.48
2019-03-27T06:25:24.886Z,1009.52
2019-03-27T06:26:24.930Z,1009.51
2019-03-27T06:27:24.960Z,1009.52
2019-03-27T06:28:25.005Z,1009.52
2019-03-27T06:29:25.039Z,1009.51
2019-03-27T06:30:25.074Z,1009.54
2019-03-27T06:31:25.109Z,1009.55
2019-03-27T06:32:25.147Z,1009.57
2019-03-27T06:33:25.183Z,1009.55
2019-03-27T06:34:25.221Z,1009.60
2019-03-27T06:35:25.258Z,1009.61
2019-03-27T06:36:25.297Z,1009.54
2019-03-27T06:37:25.412Z,1009.51
2019-03-27T06:38:25.372Z,1009.53
2019-03-27T06:39:25.410Z,1009.51
2019-03-27T06:40:25.450Z,1009.53
2019-03-27T06:41:25.485Z,1009.56
2019-03-27T06:42:25.522Z,1009.55
2019-03-27T06:43:25.564Z,1009.59
2019-03-27T06:44:25.599Z,1009.63
2019-03-27T06:45:25.647Z,1009.65
2019-03-27T06:46:25.672Z,1009.67
2019-03-27T06:47:25.710Z,1009.65
2019-03-27T06:48:26.683Z,1009.64
2019-03-27T06:49:25.803Z,1009.67
2019-03-27T06:50:25.823Z,1009.63
2019-03-27T06:51:39.228Z,1009.64
2019-03-27T06:52:25.898Z,1009.62
2019-03-27T06:53:25.936Z,1009.67
2019-03-27T06:54:25.974Z,1009.71
2019-03-27T06:55:26.012Z,1009.69
2019-03-27T06:56:26.052Z,1009.72
2019-03-27T06:57:26.190Z,1009.72
2019-03-27T06:58:26.129Z,1009.79
2019-03-27T06:59:26.165Z,1009.77
2019-03-27T07:00:26.205Z,1009.78
2019-03-27T07:01:26.248Z,1009.79
2019-03-27T07:02:28.875Z,1009.85
2019-03-27T07:03:26.316Z,1009.83
2019-03-27T07:04:26.355Z,1009.88
2019-03-27T07:05:26.407Z,1009.89
2019-03-27T07:06:26.430Z,1009.92
2019-03-27T07:07:26.469Z,1009.96
2019-03-27T07:08:26.507Z,1010.01
2019-03-27T07:09:26.547Z,1010.02
2019-03-27T07:10:26.584Z,1010.02
2019-03-27T07:11:26.625Z,1010.02
2019-03-27T07:12:26.668Z,1009.99
2019-03-27T07:13:26.699Z,1010.06
2019-03-27T07:14:26.738Z,1010.06
2019-03-27T07:15:26.777Z,1010.02
2019-03-27T07:16:26.817Z,1010.02
2019-03-27T07:17:26.859Z,1010.08
2019-03-27T07:18:39.442Z,1010.09
2019-03-27T07:19:26.930Z,1010.03
2019-03-27T07:20:26.969Z,1010.07
2019-03-27T07:21:27.006Z,1010.08
2019-03-27T07:22:27.045Z,1010.13
2019-03-27T07:23:27.084Z,1010.08
2019-03-27T07:24:27.130Z,1010.11
2019-03-27T07:25:27.161Z,1010.12
2019-03-27T07:26:27.201Z,1010.15
2019-03-27T07:27:27.241Z,1010.18
2019-03-27T07:28:27.333Z,1010.16
2019-03-27T07:29:27.319Z,1010.21
2019-03-27T07:30:27.353Z,1010.20
2019-03-27T07:31:27.396Z,1010.25
2019-03-27T07:32:27.433Z,1010.25
2019-03-27T07:33:27.471Z,1010.29
2019-03-27T07:34:27.517Z,1010.25
2019-03-27T07:35:27.558Z,1010.30
2019-03-27T07:36:27.587Z,1010.32
2019-03-27T07:37:27.646Z,1010.29
2019-03-27T07:38:27.665Z,1010.30
2019-03-27T07:39:27.711Z,1010.33
2019-03-27T07:40:27.744Z,1010.40
2019-03-27T07:41:27.781Z,1010.35
2019-03-27T07:42:29.043Z,1010.39
2019-03-27T07:43:27.859Z,1010.37
2019-03-27T07:44:27.898Z,1010.39
2019-03-27T07:45:27.945Z,1010.40
2019-03-27T07:46:27.978Z,1010.38
2019-03-27T07:47:28.016Z,1010.38
2019-03-27T07:48:28.055Z,1010.39
2019-03-27T07:49:28.098Z,1010.38
2019-03-27T07:50:28.139Z,1010.40
2019-03-27T07:51:28.171Z,1010.38
2019-03-27T07:52:28.210Z,1010.39
2019-03-27T07:53:28.254Z,1010.40
2019-03-27T07:54:28.285Z,1010.38
2019-03-27T07:55:28.335Z,1010.40
2019-03-27T07:56:28.367Z,1010.44
2019-03-27T07:57:28.406Z,1010.43
2019-03-27T07:58:28.451Z,1010.42
2019-03-27T07:59:28.487Z,1010.44
2019-03-27T08:00:28.525Z,1010.51
2019-03-27T08:01:28.562Z,1010.50
2019-03-27T08:02:28.604Z,1010.51
2019-03-27T08:03:28.641Z,1010.52
2019-03-27T08:04:28.681Z,1010.52
2019-03-27T08:05:28.722Z,1010.51
2019-03-27T08:06:28.768Z,1010.51
2019-03-27T08:07:28.799Z,1010.48
2019-03-27T08:08:28.840Z,1010.49
2019-03-27T08:09:28.879Z,1010.49
2019-03-27T08:10:28.928Z,1010.45
2019-03-27T08:11:29.092Z,1010.46
2019-03-27T08:12:29.007Z,1010.47
2019-03-27T08:13:29.037Z,1010.49
2019-03-27T08:14:29.080Z,1010.52
2019-03-27T08:15:29.119Z,1010.54
2019-03-27T08:16:29.155Z,1010.57
2019-03-27T08:17:29.197Z,1010.56
2019-03-27T08:18:29.235Z,1010.56
2019-03-27T08:19:29.275Z,1010.58
2019-03-27T08:20:29.314Z,1010.58
2019-03-27T08:21:31.228Z,1010.55
2019-03-27T08:22:29.395Z,1010.54
2019-03-27T08:23:29.439Z,1010.57
2019-03-27T08:24:29.489Z,1010.58
2019-03-27T08:25:29.515Z,1010.60
2019-03-27T08:26:29.554Z,1010.58
2019-03-27T08:27:29.596Z,1010.58
2019-03-27T08:28:29.637Z,1010.60
2019-03-27T08:29:29.732Z,1010.67
2019-03-27T08:30:29.714Z,1010.64
2019-03-27T08:31:29.755Z,1010.62
2019-03-27T08:32:29.795Z,1010.65
2019-03-27T08:33:29.833Z,1010.66
2019-03-27T08:34:29.875Z,1010.65
2019-03-27T08:35:29.917Z,1010.66
2019-03-27T08:36:29.956Z,1010.69
2019-03-27T08:37:29.997Z,1010.66
2019-03-27T08:38:30.039Z,1010.65
2019-03-27T08:39:30.085Z,1010.67
2019-03-27T08:40:30.119Z,1010.69
2019-03-27T08:41:30.159Z,1010.66
2019-03-27T08:42:30.209Z,1010.66
2019-03-27T08:43:30.244Z,1010.70
2019-03-27T08:44:30.284Z,1010.66
2019-03-27T08:45:30.323Z,1010.70
2019-03-27T08:46:30.461Z,1010.71
2019-03-27T08:47:30.408Z,1010.69
2019-03-27T08:48:30.454Z,1010.66
2019-03-27T08:49:30.486Z,1010.70
2019-03-27T08:50:30.526Z,1010.74
2019-03-27T08:51:30.570Z,1010.73
2019-03-27T08:52:30.611Z,1010.76
2019-03-27T08:53:30.658Z,1010.78
2019-03-27T08:54:30.693Z,1010.77
2019-03-27T08:55:30.735Z,1010.76
2019-03-27T08:56:30.778Z,1010.74
2019-03-27T08:57:30.813Z,1010.73
2019-03-27T08:58:30.856Z,1010.72
2019-03-27T08:59:30.900Z,1010.72
2019-03-27T09:00:30.942Z,1010.71
2019-03-27T09:01:30.983Z,1010.75
2019-03-27T09:02:31.023Z,1010.76
2019-03-27T09:03:31.066Z,1010.78
2019-03-27T09:04:31.112Z,1010.78
2019-03-27T09:05:31.149Z,1010.78
2019-03-27T09:06:33.822Z,1010.78
2019-03-27T09:07:31.231Z,1010.81
2019-03-27T09:08:31.274Z,1010.78
2019-03-27T09:09:31.319Z,1010.78
2019-03-27T09:10:31.359Z,1010.82
2019-03-27T09:11:31.402Z,1010.82
2019-03-27T09:12:31.453Z,1010.81
2019-03-27T09:13:31.487Z,1010.77
2019-03-27T09:14:31.531Z,1010.77
2019-03-27T09:15:31.568Z,1010.79
2019-03-27T09:16:31.710Z,1010.75
2019-03-27T09:17:31.648Z,1010.79
2019-03-27T09:18:31.698Z,1010.80
2019-03-27T09:19:36.058Z,1010.79
2019-03-27T09:20:31.774Z,1010.81
2019-03-27T09:21:31.821Z,1010.83
2019-03-27T09:22:31.859Z,1010.81
2019-03-27T09:23:31.901Z,1010.84
2019-03-27T09:24:31.942Z,1010.87
2019-03-27T09:25:31.986Z,1010.86
2019-03-27T09:26:32.025Z,1010.92
2019-03-27T09:27:32.069Z,1010.85
2019-03-27T09:28:32.150Z,1010.89
2019-03-27T09:29:32.152Z,1010.86
2019-03-27T09:30:32.193Z,1010.90
2019-03-27T09:31:44.159Z,1010.90
2019-03-27T09:32:32.287Z,1010.94
2019-03-27T09:33:32.320Z,1010.92
2019-03-27T09:34:32.363Z,1010.91
2019-03-27T09:35:32.406Z,1010.93
2019-03-27T09:36:32.455Z,1010.93
2019-03-27T09:37:32.495Z,1010.97
2019-03-27T09:38:32.534Z,1010.95
2019-03-27T09:39:32.579Z,1010.98
2019-03-27T09:40:32.619Z,1010.96
2019-03-27T09:41:32.668Z,1011.06
2019-03-27T09:42:32.704Z,1011.04
2019-03-27T09:43:32.746Z,1011.06
2019-03-27T09:44:32.789Z,1011.00
2019-03-27T09:45:32.834Z,1011.01
2019-03-27T09:46:32.872Z,1011.00
2019-03-27T09:47:34.630Z,1011.02
2019-03-27T09:48:32.958Z,1011.07
2019-03-27T09:49:33.000Z,1011.07
2019-03-27T09:50:33.053Z,1011.09
2019-03-27T09:51:33.085Z,1011.06
2019-03-27T09:52:33.131Z,1011.10
2019-03-27T09:53:33.230Z,1011.12
2019-03-27T09:54:33.292Z,1011.12
2019-03-27T09:55:33.277Z,1011.11
2019-03-27T09:56:33.303Z,1011.10
2019-03-27T09:57:33.343Z,1011.10
2019-03-27T09:58:33.393Z,1011.10
2019-03-27T09:59:33.434Z,1011.07
2019-03-27T10:00:33.471Z,1011.08
2019-03-27T10:01:33.513Z,1011.09
2019-03-27T10:02:33.561Z,1011.10
2019-03-27T10:03:33.602Z,1011.08
2019-03-27T10:04:33.651Z,1011.07
2019-03-27T10:05:33.687Z,1011.06
2019-03-27T10:06:33.733Z,1011.06
2019-03-27T10:07:33.779Z,1011.08
2019-03-27T10:08:33.829Z,1011.03
2019-03-27T10:09:33.859Z,1011.04
2019-03-27T10:10:33.908Z,1011.07
2019-03-27T10:11:33.946Z,1011.02
2019-03-27T10:12:33.991Z,1011.05
2019-03-27T10:13:34.040Z,1011.04
2019-03-27T10:14:34.077Z,1011.02
2019-03-27T10:15:34.120Z,1011.02
2019-03-27T10:16:34.170Z,1011.04
2019-03-27T10:17:34.208Z,1011.00
2019-03-27T10:18:34.249Z,1010.96
2019-03-27T10:19:34.292Z,1010.96
2019-03-27T10:20:34.337Z,1010.96
2019-03-27T10:21:34.386Z,1010.96
2019-03-27T10:22:34.427Z,1010.96
2019-03-27T10:23:34.469Z,1010.91
2019-03-27T10:24:34.509Z,1010.92
2019-03-27T10:25:34.552Z,1010.89
2019-03-27T10:26:34.593Z,1010.87
2019-03-27T10:27:34.637Z,1010.82
2019-03-27T10:28:34.679Z,1010.83
2019-03-27T10:29:34.724Z,1010.78
2019-03-27T10:30:34.769Z,1010.81
2019-03-27T10:31:34.810Z,1010.80
2019-03-27T10:32:34.856Z,1010.84
2019-03-27T10:33:34.895Z,1010.77
2019-03-27T10:34:34.952Z,1010.80
2019-03-27T10:35:34.981Z,1010.74
2019-03-27T10:36:35.023Z,1010.75
2019-03-27T10:37:35.064Z,1010.75
2019-03-27T10:38:35.113Z,1010.76
2019-03-27T10:39:35.151Z,1010.75
2019-03-27T10:40:35.192Z,1010.73
2019-03-27T10:41:35.237Z,1010.74
2019-03-27T10:42:35.277Z,1010.71
2019-03-27T10:43:35.322Z,1010.74
2019-03-27T10:44:35.364Z,1010.71
2019-03-27T10:45:35.409Z,1010.66
2019-03-27T10:46:35.449Z,1010.71
2019-03-27T10:47:35.496Z,1010.65
2019-03-27T10:48:35.533Z,1010.65
2019-03-27T10:49:35.580Z,1010.68
2019-03-27T10:50:35.615Z,1010.66
2019-03-27T10:51:35.656Z,1010.61
2019-03-27T10:52:35.709Z,1010.64
2019-03-27T10:53:35.750Z,1010.61
2019-03-27T10:54:35.844Z,1010.64
2019-03-27T10:55:35.829Z,1010.61
2019-03-27T10:56:35.869Z,1010.62
2019-03-27T10:57:35.910Z,1010.68
2019-03-27T10:58:35.992Z,1010.70
2019-03-27T10:59:35.997Z,1010.72
2019-03-27T11:00:36.035Z,1010.68
2019-03-27T11:01:36.078Z,1010.68
2019-03-27T11:02:36.121Z,1010.62
2019-03-27T11:03:36.171Z,1010.64
2019-03-27T11:04:36.204Z,1010.64
2019-03-27T11:05:36.248Z,1010.71
2019-03-27T11:06:36.287Z,1010.69
2019-03-27T11:07:36.329Z,1010.68
2019-03-27T11:08:36.375Z,1010.69
2019-03-27T11:09:36.409Z,1010.65
2019-03-27T11:10:36.475Z,1010.67
2019-03-27T11:11:36.495Z,1010.72
2019-03-27T11:12:36.534Z,1010.75
2019-03-27T11:13:36.576Z,1010.76
2019-03-27T11:14:38.242Z,1010.75
2019-03-27T11:15:36.659Z,1010.77
2019-03-27T11:16:36.707Z,1010.76
2019-03-27T11:17:36.741Z,1010.77
2019-03-27T11:18:36.782Z,1010.69
2019-03-27T11:19:36.825Z,1010.65
2019-03-27T11:20:36.874Z,1010.70
2019-03-27T11:21:36.907Z,1010.67
2019-03-27T11:22:36.948Z,1010.74
2019-03-27T11:23:36.990Z,1010.70
2019-03-27T11:24:37.041Z,1010.66
2019-03-27T11:25:37.071Z,1010.70
2019-03-27T11:26:37.116Z,1010.70
2019-03-27T11:27:37.159Z,1010.69
2019-03-27T11:28:37.197Z,1010.75
2019-03-27T11:29:37.241Z,1010.69
2019-03-27T11:30:37.280Z,1010.69
2019-03-27T11:31:37.522Z,1010.72
2019-03-27T11:32:37.363Z,1010.69
2019-03-27T11:33:37.411Z,1010.68
2019-03-27T11:34:37.455Z,1010.62
2019-03-27T11:35:37.487Z,1010.62
2019-03-27T11:36:37.538Z,1010.60
2019-03-27T11:37:37.587Z,1010.56
2019-03-27T11:38:37.875Z,1010.58
2019-03-27T11:39:37.696Z,1010.58
2019-03-27T11:40:37.695Z,1010.58
2019-03-27T11:41:37.740Z,1010.61
2019-03-27T11:42:37.778Z,1010.62
2019-03-27T11:43:37.818Z,1010.59
2019-03-27T11:44:37.859Z,1010.58
2019-03-27T11:45:37.900Z,1010.66
2019-03-27T11:46:37.941Z,1010.62
2019-03-27T11:47:37.984Z,1010.59
2019-03-27T11:48:38.024Z,1010.60
2019-03-27T11:49:38.066Z,1010.62
2019-03-27T11:50:44.838Z,1010.56
2019-03-27T11:51:38.156Z,1010.59
2019-03-27T11:52:38.188Z,1010.57
2019-03-27T11:53:38.238Z,1010.53
2019-03-27T11:54:38.279Z,1010.69
2019-03-27T11:55:38.311Z,1010.59
2019-03-27T11:56:38.363Z,1010.55
2019-03-27T11:57:38.393Z,1010.57
2019-03-27T11:58:38.456Z,1010.63
2019-03-27T11:59:38.483Z,1010.71
2019-03-27T12:00:38.520Z,1010.71
2019-03-27T12:01:40.830Z,1010.82
2019-03-27T12:02:38.599Z,1010.79
2019-03-27T12:03:38.643Z,1010.75
2019-03-27T12:04:38.689Z,1010.70
2019-03-27T12:05:38.722Z,1010.65